Piasa, Illinois
Current Conditions -  °F | °C
As of 9:50 AM on Thursday 23 Oct 2014 (Local Time) from KALN Reporting Station
Overcast Overcast  
Wind Chill: 46°   Ceiling: 15000
Heat Index: 48°   Visibility: 10mi
Dew Point: 45°   Wind: 6mph
Humidity: 87%   Direction: 140°SE
Pressure: 30.23"   Gusts: NA
Location:  39.12°N, 90.12°W
Report Text: KALN 231450Z 14005KT 10SM BKN150 OVC250 09/07 A3023
Loading
Personal Weather Stations






























Interactive Weather Map
Tropical Storm Tracking
New forecast layout! Learn more

10-Day Weather Forecast

Advertisements
Track Severe Weather on mobile